createdAt,value
2023-04-11T00:01:46.905Z,32.90
2023-04-11T00:04:15.217Z,33.80
2023-04-11T00:06:43.860Z,34.30
2023-04-11T00:09:13.898Z,34.90
2023-04-11T00:11:42.005Z,34.90
2023-04-11T00:14:10.822Z,35.60
2023-04-11T00:16:39.652Z,35.30
2023-04-11T00:19:09.468Z,35.40
2023-04-11T00:21:40.120Z,36.00
2023-04-11T00:24:09.144Z,36.60
2023-04-11T00:26:38.725Z,38.20
2023-04-11T00:29:06.880Z,38.90
2023-04-11T00:31:35.623Z,38.90
2023-04-11T00:34:03.840Z,40.00
2023-04-11T00:36:32.731Z,39.90
2023-04-11T00:39:01.505Z,40.30
2023-04-11T00:41:29.712Z,42.30
2023-04-11T00:43:59.161Z,41.20
2023-04-11T00:46:28.038Z,43.50
2023-04-11T00:48:57.156Z,43.20
2023-04-11T00:51:25.765Z,44.40
2023-04-11T00:53:54.498Z,47.10
2023-04-11T00:56:23.190Z,49.10
2023-04-11T00:58:51.438Z,52.40
2023-04-11T01:01:25.117Z,57.60
2023-04-11T01:03:53.839Z,61.90
2023-04-11T01:06:24.268Z,63.60
2023-04-11T01:08:52.743Z,65.90
2023-04-11T01:11:21.276Z,66.10
2023-04-11T01:13:52.100Z,66.00
2023-04-11T01:16:21.946Z,65.30
2023-04-11T01:18:50.619Z,64.30
2023-04-11T01:21:20.575Z,66.80
2023-04-11T01:23:52.675Z,64.50
2023-04-11T01:26:21.091Z,66.80
2023-04-11T01:28:49.257Z,67.20
2023-04-11T01:31:17.568Z,68.30
2023-04-11T01:33:45.958Z,69.50
2023-04-11T01:36:14.407Z,70.20
2023-04-11T01:38:42.718Z,71.20
2023-04-11T01:41:13.149Z,71.80
2023-04-11T01:43:41.310Z,72.30
2023-04-11T01:46:11.214Z,73.00
2023-04-11T01:48:39.509Z,73.10
2023-04-11T01:51:08.407Z,73.70
2023-04-11T01:53:36.572Z,74.10
2023-04-11T01:56:05.027Z,74.60
2023-04-11T01:58:34.597Z,75.30
2023-04-11T02:01:02.830Z,76.40
2023-04-11T02:03:31.103Z,76.20
2023-04-11T02:05:59.413Z,74.90
2023-04-11T02:08:27.596Z,75.40
2023-04-11T02:10:56.934Z,74.90
2023-04-11T02:13:25.091Z,74.10
2023-04-11T02:15:54.601Z,80.50
2023-04-11T02:18:22.892Z,90.20
2023-04-11T02:20:51.292Z,89.10
2023-04-11T02:23:19.384Z,89.20
2023-04-11T02:25:48.091Z,86.30
2023-04-11T02:28:16.270Z,83.40
2023-04-11T02:30:44.444Z,84.80
2023-04-11T02:33:13.909Z,85.90
2023-04-11T02:35:43.415Z,84.70
2023-04-11T02:38:11.576Z,82.50
2023-04-11T02:40:39.710Z,80.30
2023-04-11T02:43:08.554Z,78.60
2023-04-11T02:45:36.932Z,77.40
2023-04-11T02:48:05.756Z,77.10
2023-04-11T02:50:40.958Z,76.10
2023-04-11T02:53:09.799Z,75.30
2023-04-11T02:55:42.451Z,74.90
2023-04-11T02:58:11.107Z,74.90
2023-04-11T03:00:39.361Z,74.90
2023-04-11T03:03:10.309Z,75.00
2023-04-11T03:05:43.861Z,74.60
2023-04-11T03:08:13.902Z,74.80
2023-04-11T03:10:49.092Z,75.10
2023-04-11T03:13:17.437Z,75.70
2023-04-11T03:15:45.749Z,76.80
2023-04-11T03:18:14.888Z,77.40
2023-04-11T03:20:46.969Z,77.80
2023-04-11T03:23:17.176Z,86.10
2023-04-11T03:25:45.665Z,91.00
2023-04-11T03:28:15.225Z,90.80
2023-04-11T03:30:44.092Z,85.20
2023-04-11T03:33:14.900Z,85.80
2023-04-11T03:35:43.091Z,88.30
2023-04-11T03:38:12.688Z,89.20
2023-04-11T03:40:40.941Z,89.80
2023-04-11T03:43:13.234Z,90.10
2023-04-11T03:45:41.941Z,90.10
2023-04-11T03:48:19.986Z,91.50
2023-04-11T03:50:56.680Z,91.50
2023-04-11T03:53:33.123Z,92.80
2023-04-11T03:56:08.617Z,92.90
2023-04-11T03:58:39.276Z,92.30
2023-04-11T04:01:07.986Z,92.00
2023-04-11T04:03:36.918Z,91.50
2023-04-11T04:06:06.258Z,90.00
2023-04-11T04:08:35.931Z,88.30
2023-04-11T04:11:04.535Z,89.50
2023-04-11T04:13:35.077Z,88.30
2023-04-11T04:16:13.926Z,89.70
2023-04-11T04:18:45.563Z,89.20
2023-04-11T04:21:13.882Z,89.40
2023-04-11T04:23:47.410Z,85.00
2023-04-11T04:26:31.378Z,84.40
2023-04-11T04:29:18.168Z,86.40
2023-04-11T04:31:52.977Z,82.70
2023-04-11T04:34:29.262Z,81.60
2023-04-11T04:37:02.042Z,80.40
2023-04-11T04:39:42.081Z,78.90
2023-04-11T04:42:12.842Z,79.90
2023-04-11T04:44:41.864Z,78.90
2023-04-11T04:47:19.323Z,78.40
2023-04-11T04:49:48.749Z,75.20
2023-04-11T04:52:18.038Z,75.20
2023-04-11T04:54:48.246Z,75.60
2023-04-11T04:57:16.419Z,75.80
2023-04-11T04:59:46.025Z,74.30
2023-04-11T05:02:17.280Z,72.60
2023-04-11T05:04:46.321Z,71.60
2023-04-11T05:07:16.090Z,71.30
2023-04-11T05:09:48.713Z,73.30
2023-04-11T05:12:27.087Z,73.90
2023-04-11T05:14:59.796Z,73.20
2023-04-11T05:17:31.202Z,72.90
2023-04-11T05:19:59.621Z,74.10
2023-04-11T05:22:29.082Z,74.20
2023-04-11T05:24:59.952Z,73.90
2023-04-11T05:27:28.166Z,74.60
2023-04-11T05:29:56.389Z,74.30
2023-04-11T05:32:25.271Z,74.30
2023-04-11T05:34:58.390Z,74.00
2023-04-11T05:37:37.309Z,75.20
2023-04-11T05:40:10.131Z,75.20
2023-04-11T05:42:38.347Z,75.60
2023-04-11T05:45:07.735Z,75.20
2023-04-11T05:47:35.840Z,75.30
2023-04-11T05:50:04.145Z,74.80
2023-04-11T05:52:32.269Z,73.90
2023-04-11T05:55:01.349Z,73.90
2023-04-11T05:57:30.992Z,73.70
2023-04-11T06:00:01.945Z,73.20
2023-04-11T06:02:41.101Z,73.30
2023-04-11T06:05:12.143Z,73.30
2023-04-11T06:07:41.405Z,73.10
2023-04-11T06:10:10.857Z,71.80
2023-04-11T06:12:40.274Z,71.60
2023-04-11T06:15:11.759Z,71.30
2023-04-11T06:17:39.915Z,70.10
2023-04-11T06:20:10.333Z,70.80
2023-04-11T06:22:40.105Z,70.00
2023-04-11T06:25:09.396Z,69.50
2023-04-11T06:27:37.535Z,70.50
2023-04-11T06:30:08.688Z,72.40
2023-04-11T06:32:36.838Z,73.00
2023-04-11T06:35:05.361Z,73.00
2023-04-11T06:37:33.611Z,72.60
2023-04-11T06:40:01.755Z,71.40
2023-04-11T06:42:30.014Z,71.70
2023-04-11T06:44:59.445Z,72.50
2023-04-11T06:47:28.930Z,71.50
2023-04-11T06:49:57.284Z,71.70
2023-04-11T06:52:27.556Z,72.20
2023-04-11T06:54:56.328Z,71.20
2023-04-11T06:57:24.517Z,71.30
2023-04-11T06:59:52.589Z,70.60
2023-04-11T07:02:21.987Z,70.70
2023-04-11T07:04:51.618Z,71.30
2023-04-11T07:07:19.684Z,68.30
2023-04-11T07:09:48.171Z,67.90
2023-04-11T07:12:16.381Z,66.60
2023-04-11T07:14:44.504Z,66.30
2023-04-11T07:17:12.629Z,66.50
2023-04-11T07:19:40.724Z,65.60
2023-04-11T07:22:10.170Z,66.90
2023-04-11T07:24:38.268Z,67.70
2023-04-11T07:27:06.780Z,67.90
2023-04-11T07:29:35.002Z,68.80
2023-04-11T07:32:03.150Z,66.80
2023-04-11T07:34:31.815Z,70.90
2023-04-11T07:37:01.097Z,69.40
2023-04-11T07:39:30.686Z,68.90
2023-04-11T07:41:59.131Z,68.10
2023-04-11T07:44:27.438Z,67.70
2023-04-11T07:46:55.771Z,67.30
2023-04-11T07:49:23.904Z,67.80
2023-04-11T07:51:51.989Z,68.20
2023-04-11T07:54:20.153Z,66.30
2023-04-11T07:56:49.650Z,66.70
2023-04-11T07:59:18.121Z,65.50
2023-04-11T08:01:46.267Z,66.00
2023-04-11T08:04:14.724Z,67.00
2023-04-11T08:06:43.515Z,65.20
2023-04-11T08:09:11.635Z,65.50
2023-04-11T08:11:40.860Z,66.20
2023-04-11T08:14:10.309Z,67.20
2023-04-11T08:16:38.453Z,68.30
2023-04-11T08:19:06.901Z,65.80
2023-04-11T08:21:35.017Z,66.80
2023-04-11T08:24:03.146Z,66.20
2023-04-11T08:26:31.410Z,66.40
2023-04-11T08:28:59.579Z,66.50
2023-04-11T08:31:29.460Z,66.70
2023-04-11T08:34:00.440Z,66.50
2023-04-11T08:36:29.255Z,66.80
2023-04-11T08:38:57.346Z,68.30
2023-04-11T08:41:25.474Z,68.80
2023-04-11T08:43:53.697Z,69.10
2023-04-11T08:46:21.896Z,68.80
2023-04-11T08:48:52.071Z,70.10
2023-04-11T08:51:23.472Z,69.60
2023-04-11T08:53:54.469Z,70.70
2023-04-11T08:56:22.721Z,70.50
2023-04-11T08:58:50.862Z,68.30
2023-04-11T09:01:31.817Z,68.30
2023-04-11T09:04:03.500Z,64.70
2023-04-11T09:06:32.832Z,59.00
2023-04-11T09:09:01.843Z,57.30
2023-04-11T09:11:29.900Z,57.90
2023-04-11T09:14:08.280Z,56.90
2023-04-11T09:16:36.892Z,54.60
2023-04-11T09:19:25.065Z,54.60
2023-04-11T09:21:53.914Z,49.10
2023-04-11T09:24:22.789Z,50.80
2023-04-11T09:26:51.373Z,53.90
2023-04-11T09:29:37.402Z,50.40
2023-04-11T09:32:05.985Z,46.00
2023-04-11T09:34:39.543Z,48.50
2023-04-11T09:37:09.221Z,43.20
2023-04-11T09:39:37.360Z,43.30
2023-04-11T09:42:25.196Z,40.20
2023-04-11T09:44:53.862Z,39.80
2023-04-11T09:47:22.452Z,42.10
2023-04-11T09:49:52.810Z,41.70
2023-04-11T09:52:21.758Z,42.80
2023-04-11T09:54:51.899Z,43.50
2023-04-11T09:57:22.779Z,41.50
2023-04-11T09:59:52.576Z,41.90
2023-04-11T10:02:20.910Z,42.30
2023-04-11T10:04:50.050Z,41.10
2023-04-11T10:07:20.449Z,43.30
2023-04-11T10:09:48.814Z,45.20
2023-04-11T10:12:31.605Z,43.40
2023-04-11T10:15:06.915Z,44.90
2023-04-11T10:17:35.072Z,44.90
2023-04-11T10:20:06.167Z,44.90
2023-04-11T10:23:05.957Z,44.50
2023-04-11T10:25:49.568Z,45.60
2023-04-11T10:28:35.448Z,44.10
2023-04-11T10:31:05.316Z,45.30
2023-04-11T10:33:36.076Z,45.30
2023-04-11T10:36:06.412Z,45.40
2023-04-11T10:38:49.793Z,43.60
2023-04-11T10:41:31.796Z,43.90
2023-04-11T10:44:15.677Z,44.50
2023-04-11T10:46:53.680Z,44.10
2023-04-11T10:49:36.832Z,43.70
2023-04-11T10:52:18.745Z,43.70
2023-04-11T10:54:48.500Z,40.50
2023-04-11T10:57:16.851Z,41.90
2023-04-11T11:00:01.238Z,42.90
2023-04-11T11:02:39.821Z,43.90
2023-04-11T11:05:20.481Z,42.00
2023-04-11T11:07:53.405Z,42.90
2023-04-11T11:10:43.179Z,41.20
2023-04-11T11:13:14.149Z,42.40
2023-04-11T11:15:48.736Z,41.10
2023-04-11T11:18:19.593Z,42.10
2023-04-11T11:20:47.721Z,43.90
2023-04-11T11:23:16.111Z,43.80
2023-04-11T11:25:55.363Z,42.10
2023-04-11T11:28:23.786Z,44.60
2023-04-11T11:30:54.840Z,41.00
2023-04-11T11:33:26.567Z,39.40
2023-04-11T11:35:57.531Z,37.90
2023-04-11T11:38:28.353Z,37.30
2023-04-11T11:40:58.882Z,38.80
2023-04-11T11:43:28.381Z,36.80
2023-04-11T11:46:11.338Z,37.60
2023-04-11T11:48:39.539Z,37.30
2023-04-11T11:51:08.137Z,38.90
2023-04-11T11:53:36.529Z,37.90
2023-04-11T11:56:15.857Z,38.20
2023-04-11T11:58:45.454Z,37.00
2023-04-11T12:01:17.092Z,36.80
2023-04-11T12:03:48.264Z,42.00
2023-04-11T12:06:17.287Z,38.80
2023-04-11T12:08:50.216Z,38.00
2023-04-11T12:11:19.885Z,38.70
2023-04-11T12:13:53.448Z,40.50
2023-04-11T12:16:23.739Z,38.50
2023-04-11T12:18:51.951Z,38.30
2023-04-11T12:21:20.105Z,39.90
2023-04-11T12:23:48.163Z,39.60
2023-04-11T12:26:17.657Z,38.50
2023-04-11T12:28:47.227Z,38.30
2023-04-11T12:31:15.814Z,37.90
2023-04-11T12:33:44.639Z,38.30
2023-04-11T12:36:13.663Z,38.20
2023-04-11T12:38:42.264Z,38.40
2023-04-11T12:41:30.897Z,37.20
2023-04-11T12:44:02.130Z,38.20
2023-04-11T12:46:30.367Z,36.50
2023-04-11T12:48:58.965Z,35.60
2023-04-11T12:51:27.581Z,36.70
2023-04-11T12:53:55.956Z,35.90
2023-04-11T12:56:24.070Z,34.40
2023-04-11T12:58:52.251Z,34.60
2023-04-11T13:01:23.503Z,33.50
2023-04-11T13:03:51.916Z,36.00
2023-04-11T13:06:20.239Z,35.30
2023-04-11T13:08:48.272Z,33.70
2023-04-11T13:11:16.388Z,35.60
2023-04-11T13:13:44.544Z,33.80
2023-04-11T13:16:12.908Z,34.70
2023-04-11T13:18:42.624Z,33.90
2023-04-11T13:21:10.857Z,33.50
2023-04-11T13:23:39.344Z,35.50
2023-04-11T13:26:08.148Z,34.40
2023-04-11T13:28:36.767Z,31.50
2023-04-11T13:31:04.936Z,34.10
2023-04-11T13:33:33.018Z,32.50
2023-04-11T13:36:02.966Z,33.70
2023-04-11T13:38:31.435Z,31.20
2023-04-11T13:40:59.945Z,31.90
2023-04-11T13:43:28.423Z,32.60
2023-04-11T13:45:56.717Z,32.10
2023-04-11T13:48:24.798Z,30.90
2023-04-11T13:50:52.947Z,30.20
2023-04-11T13:53:22.357Z,29.60
2023-04-11T13:55:51.202Z,30.70
2023-04-11T13:58:19.799Z,28.90
2023-04-11T14:00:49.690Z,30.10
2023-04-11T14:03:18.134Z,30.00
2023-04-11T14:05:46.282Z,29.30
2023-04-11T14:08:15.300Z,27.20
2023-04-11T14:10:45.029Z,27.30
2023-04-11T14:13:13.207Z,27.40
2023-04-11T14:15:41.345Z,26.00
2023-04-11T14:18:09.433Z,27.00
2023-04-11T14:20:37.910Z,28.10
2023-04-11T14:23:06.435Z,25.80
2023-04-11T14:25:34.636Z,26.70
2023-04-11T14:28:04.197Z,26.60
2023-04-11T14:30:32.534Z,27.60
2023-04-11T14:33:00.909Z,27.90
2023-04-11T14:35:29.123Z,25.50
2023-04-11T14:37:58.257Z,25.70
2023-04-11T14:40:26.395Z,27.30
2023-04-11T14:42:54.554Z,27.90
2023-04-11T14:45:24.086Z,26.00
2023-04-11T14:47:52.526Z,24.30
2023-04-11T14:50:20.775Z,25.30
2023-04-11T14:52:51.857Z,25.10
2023-04-11T14:55:20.403Z,25.80
2023-04-11T14:57:49.617Z,26.80
2023-04-11T15:00:22.581Z,24.60
2023-04-11T15:02:53.629Z,25.60
2023-04-11T15:05:23.416Z,25.50
2023-04-11T15:07:53.791Z,25.20
2023-04-11T15:10:23.865Z,26.20
2023-04-11T15:12:51.988Z,27.80
2023-04-11T15:15:20.208Z,28.00
2023-04-11T15:17:49.896Z,26.40
2023-04-11T15:20:20.032Z,26.00
2023-04-11T15:22:49.366Z,24.40
2023-04-11T15:25:17.658Z,25.20
2023-04-11T15:27:45.768Z,26.00
2023-04-11T15:30:14.186Z,24.80
2023-04-11T15:32:44.090Z,26.00
2023-04-11T15:35:12.376Z,24.30
2023-04-11T15:37:42.256Z,24.10
2023-04-11T15:40:12.279Z,25.80
2023-04-11T15:42:40.740Z,26.90
2023-04-11T15:45:09.783Z,25.60
2023-04-11T15:47:37.987Z,25.00
2023-04-11T15:50:07.412Z,23.60
2023-04-11T15:52:35.699Z,23.90
2023-04-11T15:55:05.783Z,24.10
2023-04-11T15:57:33.832Z,25.40
2023-04-11T16:00:02.234Z,25.50
2023-04-11T16:02:38.232Z,24.50
2023-04-11T16:05:07.908Z,23.60
2023-04-11T16:07:36.170Z,24.40
2023-04-11T16:10:06.487Z,23.40
2023-04-11T16:12:34.589Z,24.80
2023-04-11T16:15:02.679Z,24.60
2023-04-11T16:17:30.940Z,24.30
2023-04-11T16:19:59.202Z,25.00
2023-04-11T16:22:27.355Z,25.10
2023-04-11T16:24:56.333Z,24.50
2023-04-11T16:27:25.969Z,23.70
2023-04-11T16:29:59.744Z,23.90
2023-04-11T16:32:28.018Z,24.70
2023-04-11T16:34:57.725Z,24.60
2023-04-11T16:37:26.029Z,25.90
2023-04-11T16:39:54.507Z,26.30
2023-04-11T16:42:23.753Z,25.80
2023-04-11T16:44:53.397Z,25.70
2023-04-11T16:47:26.182Z,25.30
2023-04-11T16:49:55.048Z,25.10
2023-04-11T16:52:23.622Z,25.70
2023-04-11T16:54:52.145Z,26.00
2023-04-11T16:57:20.342Z,25.50
2023-04-11T16:59:48.457Z,25.80
2023-04-11T17:02:18.234Z,25.10
2023-04-11T17:04:46.581Z,25.50
2023-04-11T17:07:14.706Z,26.20
2023-04-11T17:09:42.748Z,26.10
2023-04-11T17:12:10.833Z,26.40
2023-04-11T17:14:38.912Z,26.10
2023-04-11T17:17:07.026Z,26.20
2023-04-11T17:19:36.671Z,25.70
2023-04-11T17:22:05.883Z,26.40
2023-04-11T17:24:34.136Z,26.40
2023-04-11T17:27:02.501Z,25.50
2023-04-11T17:29:30.565Z,25.90
2023-04-11T17:31:58.655Z,26.30
2023-04-11T17:34:26.726Z,26.20
2023-04-11T17:36:58.685Z,26.80
2023-04-11T17:39:26.806Z,27.40
2023-04-11T17:41:55.352Z,27.10
2023-04-11T17:44:23.475Z,27.60
2023-04-11T17:46:51.740Z,27.10
2023-04-11T17:49:21.561Z,27.50
2023-04-11T17:51:58.754Z,27.50
2023-04-11T17:54:28.834Z,28.70
2023-04-11T17:56:57.341Z,28.30
2023-04-11T17:59:25.538Z,28.00
2023-04-11T18:01:55.988Z,27.60
2023-04-11T18:04:24.495Z,28.40
2023-04-11T18:06:52.772Z,28.90
2023-04-11T18:09:20.865Z,28.90
2023-04-11T18:11:50.551Z,27.40
2023-04-11T18:14:18.836Z,28.30
2023-04-11T18:16:47.967Z,28.20
2023-04-11T18:19:16.123Z,29.30
2023-04-11T18:21:44.238Z,29.40
2023-04-11T18:24:12.341Z,29.80
2023-04-11T18:26:40.458Z,29.60
2023-04-11T18:29:09.877Z,29.40
2023-04-11T18:31:38.029Z,30.30
2023-04-11T18:34:07.248Z,31.00
2023-04-11T18:36:36.421Z,30.40
2023-04-11T18:39:05.255Z,31.20
2023-04-11T18:41:33.364Z,32.00
2023-04-11T18:44:02.739Z,34.00
2023-04-11T18:46:34.248Z,36.10
2023-04-11T18:49:05.169Z,35.70
2023-04-11T18:51:35.513Z,37.00
2023-04-11T18:54:03.767Z,37.20
2023-04-11T18:56:32.008Z,37.50
2023-04-11T18:59:05.355Z,37.50
2023-04-11T19:01:37.425Z,38.60
2023-04-11T19:04:06.124Z,38.30
2023-04-11T19:06:34.583Z,37.30
2023-04-11T19:09:02.725Z,37.70
2023-04-11T19:11:31.123Z,38.60
2023-04-11T19:14:00.039Z,39.60
2023-04-11T19:16:28.422Z,39.30
2023-04-11T19:18:58.990Z,39.10
2023-04-11T19:21:27.203Z,39.70
2023-04-11T19:23:56.754Z,39.00
2023-04-11T19:26:27.443Z,40.00
2023-04-11T19:28:55.638Z,40.00
2023-04-11T19:31:26.738Z,40.30
2023-04-11T19:33:55.137Z,40.10
2023-04-11T19:36:25.604Z,39.70
2023-04-11T19:38:53.687Z,39.70
2023-04-11T19:41:21.831Z,39.70
2023-04-11T19:43:49.935Z,39.20
2023-04-11T19:46:18.457Z,39.40
2023-04-11T19:48:46.990Z,39.90
2023-04-11T19:51:15.187Z,40.00
2023-04-11T19:53:44.658Z,40.90
2023-04-11T19:56:14.472Z,40.70
2023-04-11T19:58:42.968Z,41.10
2023-04-11T20:01:11.092Z,41.40
2023-04-11T20:03:40.824Z,40.00
2023-04-11T20:06:09.467Z,40.50
2023-04-11T20:08:38.188Z,40.20
2023-04-11T20:11:07.904Z,41.80
2023-04-11T20:13:36.087Z,42.40
2023-04-11T20:16:08.252Z,42.60
2023-04-11T20:18:36.776Z,42.80
2023-04-11T20:21:07.569Z,42.50
2023-04-11T20:23:37.085Z,41.90
2023-04-11T20:26:05.507Z,42.00
2023-04-11T20:28:35.039Z,42.40
2023-04-11T20:31:04.600Z,42.10
2023-04-11T20:33:32.855Z,41.40
2023-04-11T20:36:03.321Z,42.10
2023-04-11T20:38:31.666Z,41.80
2023-04-11T20:41:03.969Z,41.60
2023-04-11T20:43:32.387Z,42.00
2023-04-11T20:46:01.936Z,42.30
2023-04-11T20:48:32.015Z,42.50
2023-04-11T20:51:01.735Z,42.50
2023-04-11T20:53:30.016Z,42.50
2023-04-11T20:55:58.164Z,42.60
2023-04-11T20:58:27.656Z,43.40
2023-04-11T21:00:55.806Z,42.90
2023-04-11T21:03:25.670Z,42.60
2023-04-11T21:05:53.902Z,42.60
2023-04-11T21:08:23.584Z,43.80
2023-04-11T21:10:51.811Z,44.00
2023-04-11T21:13:20.018Z,43.20
2023-04-11T21:15:48.175Z,41.70
2023-04-11T21:18:16.365Z,41.10
2023-04-11T21:20:46.220Z,39.50
2023-04-11T21:23:14.571Z,38.70
2023-04-11T21:25:42.698Z,37.70
2023-04-11T21:28:10.859Z,37.10
2023-04-11T21:30:39.520Z,37.10
2023-04-11T21:33:07.915Z,36.90
2023-04-11T21:35:36.240Z,36.80
2023-04-11T21:38:05.773Z,36.80
2023-04-11T21:40:33.859Z,36.60
2023-04-11T21:43:01.998Z,36.80
2023-04-11T21:45:30.159Z,36.70
2023-04-11T21:47:58.409Z,36.10
2023-04-11T21:50:26.514Z,36.60
2023-04-11T21:52:54.831Z,36.90
2023-04-11T21:55:24.372Z,37.40
2023-04-11T21:57:52.491Z,37.60
2023-04-11T22:00:20.739Z,38.80
2023-04-11T22:02:49.077Z,39.20
2023-04-11T22:05:18.788Z,39.60
2023-04-11T22:07:49.629Z,40.60
2023-04-11T22:10:23.741Z,41.30
2023-04-11T22:12:54.575Z,41.60
2023-04-11T22:15:23.943Z,41.60
2023-04-11T22:17:56.415Z,41.90
2023-04-11T22:20:24.848Z,42.70
2023-04-11T22:22:52.899Z,42.30
2023-04-11T22:25:22.715Z,43.00
2023-04-11T22:27:54.169Z,42.70
2023-04-11T22:30:24.876Z,42.30
2023-04-11T22:32:54.412Z,42.70
2023-04-11T22:35:23.510Z,42.70
2023-04-11T22:37:53.680Z,42.80
2023-04-11T22:40:23.044Z,43.60
2023-04-11T22:42:52.244Z,44.70
2023-04-11T22:45:21.333Z,46.00
2023-04-11T22:47:54.284Z,47.30
2023-04-11T22:50:22.824Z,47.10
2023-04-11T22:52:51.063Z,48.80
2023-04-11T22:55:21.139Z,50.60
2023-04-11T22:57:49.518Z,50.20
2023-04-11T23:00:18.888Z,50.90
2023-04-11T23:02:47.267Z,52.10
2023-04-11T23:05:17.713Z,52.60
2023-04-11T23:07:46.361Z,54.20
2023-04-11T23:10:15.527Z,55.40
2023-04-11T23:12:44.647Z,56.40
2023-04-11T23:15:13.251Z,56.20
2023-04-11T23:17:41.444Z,56.70
2023-04-11T23:20:12.821Z,57.50
2023-04-11T23:22:43.739Z,58.70
2023-04-11T23:25:13.414Z,59.30
2023-04-11T23:27:41.788Z,59.30
2023-04-11T23:30:11.837Z,60.70
2023-04-11T23:32:40.895Z,62.20
2023-04-11T23:35:10.566Z,63.00
2023-04-11T23:37:38.725Z,64.00
2023-04-11T23:40:12.341Z,64.30
2023-04-11T23:42:40.452Z,65.20
2023-04-11T23:45:10.626Z,65.20
2023-04-11T23:47:39.276Z,65.90
2023-04-11T23:50:08.203Z,66.50
2023-04-11T23:52:36.339Z,67.30
2023-04-11T23:55:05.202Z,67.50
2023-04-11T23:57:34.820Z,67.90
